Time;durP1;ratioP1;P1;durP2;ratioP2;P2;SDS_P1;SDS_P2;PMS_P1;PMS_P2;Temp;Humidity;BMP_temperature;BMP_pressure;BME280_temperature;BME280_humidity;BME280_pressure;Samples;Min_cycle;Max_cycle;Signal;HPM_P1;HPM_P2
2020/12/16 00:01:16;;;;;;;;;;;;;;;;;;5063585;28;10371;-53
2020/12/16 00:03:41;;;;;;;;;;;;;;;;;;5064861;28;9046;-46
2020/12/16 00:06:07;;;;;;;;;;;;;;;;;;5059419;28;7653;-47
2020/12/16 00:08:32;;;;;;;;;;;;;;;;;;5066984;28;4185;-50
2020/12/16 00:10:57;;;;;;;;;;;;;;;;;;5059049;28;11064;-48
2020/12/16 00:13:23;;;;;;;;;;;;;;;;;;5060564;28;13872;-48
2020/12/16 00:15:48;;;;;;;;;;;;;;;;;;5067206;28;11075;-51
2020/12/16 00:18:13;;;;;;;;;;;;;;;;;;5068369;28;14474;-51
2020/12/16 00:20:39;;;;;;;;;;;;;;;;;;5065836;28;9577;-48
2020/12/16 00:23:04;;;;;;;;;;;;;;;;;;5065770;28;7289;-47
2020/12/16 00:25:29;;;;;;;;;;;;;;;;;;5063846;28;15886;-50
2020/12/16 00:27:54;;;;;;;;;;;;;;;;;;5055290;28;11547;-49
2020/12/16 00:30:20;;;;;;;;;;;;;;;;;;5067323;28;11530;-49
2020/12/16 00:32:45;;;;;;;;;;;;;;;;;;5069909;28;15234;-53
2020/12/16 00:35:11;;;;;;;;;;;;;;;;;;5070513;28;7471;-51
2020/12/16 00:37:42;;;;;;;;;;;;;;;;;;5069268;28;7568;-50
2020/12/16 00:40:08;;;;;;;;;;;;;;;;;;5062777;28;14607;-46
2020/12/16 00:42:34;;;;;;;;;;;;;;;;;;5064043;28;16307;-51
2020/12/16 00:44:59;;;;;;;;;;;;;;;;;;5063414;28;10575;-48
2020/12/16 00:47:25;;;;;;;;;;;;;;;;;;5065034;28;4213;-50
2020/12/16 00:49:50;;;;;;;;;;;;;;;;;;5065975;28;14458;-57
2020/12/16 00:52:17;;;;;;;;;;;;;;;;;;5068770;28;7446;-44
2020/12/16 00:54:42;;;;;;;;;;;;;;;;;;5051557;28;9256;-48
2020/12/16 00:57:08;;;;;;;;;;;;;;;;;;5070278;28;16066;-46
2020/12/16 00:59:33;;;;;;;;;;;;;;;;;;5076788;28;4189;-50
2020/12/16 01:01:58;;;;;;;;;;;;;;;;;;5061357;28;12632;-49
2020/12/16 01:04:23;;;;;;;;;;;;;;;;;;5070255;28;12390;-47
2020/12/16 01:06:49;;;;;;;;;;;;;;;;;;5070485;28;12819;-50
2020/12/16 01:09:14;;;;;;;;;;;;;;;;;;5069487;28;12622;-48
2020/12/16 01:11:39;;;;;;;;;;;;;;;;;;5068487;28;15142;-44
2020/12/16 01:14:06;;;;;;;;;;;;;;;;;;5068798;28;6833;-50
2020/12/16 01:16:35;;;;;;;;;;;;;;;;;;5072621;28;7434;-48
2020/12/16 01:19:00;;;;;;;;;;;;;;;;;;5068776;28;14276;-48
2020/12/16 01:21:25;;;;;;;;;;;;;;;;;;5073143;28;13517;-49
2020/12/16 01:23:51;;;;;;;;;;;;;;;;;;5059331;28;13294;-49
2020/12/16 01:26:16;;;;;;;;;;;;;;;;;;5076746;28;7776;-49
2020/12/16 01:28:41;;;;;;;;;;;;;;;;;;5066892;28;9486;-50
2020/12/16 01:31:06;;;;;;;;;;;;;;;;;;5060959;28;14099;-46
2020/12/16 01:33:32;;;;;;;;;;;;;;;;;;5068650;28;12257;-49
2020/12/16 01:35:57;;;;;;;;;;;;;;;;;;5068681;28;14183;-53
2020/12/16 01:38:22;;;;;;;;;;;;;;;;;;5071386;28;4205;-54
2020/12/16 01:40:47;;;;;;;;;;;;;;;;;;5068695;28;16422;-50
2020/12/16 01:43:13;;;;;;;;;;;;;;;;;;5068781;28;15050;-48
2020/12/16 01:45:38;;;;;;;;;;;;;;;;;;5072874;28;9488;-50
2020/12/16 01:48:03;;;;;;;;;;;;;;;;;;5068995;28;12149;-49
2020/12/16 01:50:28;;;;;;;;;;;;;;;;;;5070304;28;4182;-48
2020/12/16 01:52:56;;;;;;;;;;;;;;;;;;5065548;28;10056;-48
2020/12/16 01:55:25;;;;;;;;;;;;;;;;;;5067190;28;11853;-50
2020/12/16 01:57:53;;;;;;;;;;;;;;;;;;5066343;28;15896;-50
2020/12/16 02:00:19;;;;;;;;;;;;;;;;;;5062360;28;12367;-50
2020/12/16 02:02:49;;;;;;;;;;;;;;;;;;5060847;28;8615;-50
2020/12/16 02:05:16;;;;;;;;;;;;;;;;;;5070285;28;10055;-50
2020/12/16 02:07:45;;;;;;;;;;;;;;;;;;5066708;28;14477;-45
2020/12/16 02:10:10;;;;;;;;;;;;;;;;;;5050602;28;11822;-48
2020/12/16 02:12:35;;;;;;;;;;;;;;;;;;5068381;28;14585;-52
2020/12/16 02:15:02;;;;;;;;;;;;;;;;;;5064863;28;9953;-50
2020/12/16 02:17:27;;;;;;;;;;;;;;;;;;5069746;28;3939;-47
2020/12/16 02:19:56;;;;;;;;;;;;;;;;;;5065052;28;14137;-51
2020/12/16 02:22:22;;;;;;;;;;;;;;;;;;5071128;28;9200;-51
2020/12/16 02:25:01;;;;;;;;;;;;;;;;;;5058196;28;14726;-51
2020/12/16 02:27:27;;;;;;;;;;;;;;;;;;5062904;28;9419;-52
2020/12/16 02:29:53;;;;;;;;;;;;;;;;;;5050374;28;7913;-51
2020/12/16 02:32:18;;;;;;;;;;;;;;;;;;5063357;28;6945;-48
2020/12/16 02:34:44;;;;;;;;;;;;;;;;;;5050010;28;5174;-50
2020/12/16 02:37:09;;;;;;;;;;;;;;;;;;5067618;28;9100;-46
2020/12/16 02:39:34;;;;;;;;;;;;;;;;;;5049274;28;9684;-49
2020/12/16 02:42:01;;;;;;;;;;;;;;;;;;5066929;28;13008;-49
2020/12/16 02:44:26;;;;;;;;;;;;;;;;;;5066480;28;3992;-44
2020/12/16 02:46:51;;;;;;;;;;;;;;;;;;5064378;28;16388;-49
2020/12/16 02:49:17;;;;;;;;;;;;;;;;;;5065084;28;16062;-54
2020/12/16 02:51:42;;;;;;;;;;;;;;;;;;5046050;28;7172;-49
2020/12/16 02:54:07;;;;;;;;;;;;;;;;;;5064600;28;13123;-49
2020/12/16 02:56:32;;;;;;;;;;;;;;;;;;5068831;28;4280;-48
2020/12/16 02:58:58;;;;;;;;;;;;;;;;;;5065421;28;15308;-49
2020/12/16 03:01:23;;;;;;;;;;;;;;;;;;5059394;28;9896;-50
2020/12/16 03:03:48;;;;;;;;;;;;;;;;;;5057920;28;13542;-51
2020/12/16 03:06:14;;;;;;;;;;;;;;;;;;5065889;28;15581;-53
2020/12/16 03:08:40;;;;;;;;;;;;;;;;;;5055723;28;7008;-44
2020/12/16 03:11:05;;;;;;;;;;;;;;;;;;5068376;28;8812;-51
2020/12/16 03:13:31;;;;;;;;;;;;;;;;;;5065703;28;8853;-50
2020/12/16 03:15:56;;;;;;;;;;;;;;;;;;5058435;28;15315;-47
2020/12/16 03:18:21;;;;;;;;;;;;;;;;;;5058525;28;16533;-50
2020/12/16 03:20:46;;;;;;;;;;;;;;;;;;5060428;28;7426;-51
2020/12/16 03:23:12;;;;;;;;;;;;;;;;;;5075614;28;7912;-50
2020/12/16 03:25:37;;;;;;;;;;;;;;;;;;5068356;28;14896;-49
2020/12/16 03:28:02;;;;;;;;;;;;;;;;;;5061791;28;14122;-48
2020/12/16 03:30:27;;;;;;;;;;;;;;;;;;5057457;28;11465;-55
2020/12/16 03:32:53;;;;;;;;;;;;;;;;;;5067099;28;7820;-50
2020/12/16 03:35:18;;;;;;;;;;;;;;;;;;5069567;28;9566;-47
2020/12/16 03:37:43;;;;;;;;;;;;;;;;;;5072407;28;8683;-46
2020/12/16 03:40:08;;;;;;;;;;;;;;;;;;5075077;28;15642;-47
2020/12/16 03:42:35;;;;;;;;;;;;;;;;;;5068300;28;16086;-51
2020/12/16 03:45:00;;;;;;;;;;;;;;;;;;5067182;28;14934;-47
2020/12/16 03:47:26;;;;;;;;;;;;;;;;;;5068361;28;3923;-50
2020/12/16 03:49:51;;;;;;;;;;;;;;;;;;5065754;28;12739;-50
2020/12/16 03:52:16;;;;;;;;;;;;;;;;;;5062084;28;6818;-53
2020/12/16 03:54:41;;;;;;;;;;;;;;;;;;5065392;28;13910;-49
2020/12/16 03:57:07;;;;;;;;;;;;;;;;;;5067637;28;9864;-49
2020/12/16 03:59:32;;;;;;;;;;;;;;;;;;5072365;28;4529;-47
2020/12/16 04:01:57;;;;;;;;;;;;;;;;;;5059792;28;15990;-50
2020/12/16 04:04:22;;;;;;;;;;;;;;;;;;5065285;28;9348;-51
2020/12/16 04:06:48;;;;;;;;;;;;;;;;;;5069692;28;15072;-46
2020/12/16 04:09:13;;;;;;;;;;;;;;;;;;5062443;28;12013;-50
2020/12/16 04:11:38;;;;;;;;;;;;;;;;;;5062004;28;4211;-50
2020/12/16 04:14:04;;;;;;;;;;;;;;;;;;5067632;28;12953;-53
2020/12/16 04:16:29;;;;;;;;;;;;;;;;;;5070305;28;9349;-44
2020/12/16 04:18:54;;;;;;;;;;;;;;;;;;5071341;28;10418;-47
2020/12/16 04:21:20;;;;;;;;;;;;;;;;;;5068995;28;7609;-44
2020/12/16 04:23:45;;;;;;;;;;;;;;;;;;5065810;28;14316;-46
2020/12/16 04:26:11;;;;;;;;;;;;;;;;;;5069415;28;6624;-49
2020/12/16 04:28:36;;;;;;;;;;;;;;;;;;5068010;28;9963;-52
2020/12/16 04:31:03;;;;;;;;;;;;;;;;;;5052689;28;7727;-44
2020/12/16 04:33:28;;;;;;;;;;;;;;;;;;5068217;28;14257;-50
2020/12/16 04:35:53;;;;;;;;;;;;;;;;;;5070633;28;10457;-54
2020/12/16 04:38:18;;;;;;;;;;;;;;;;;;5064681;28;7387;-48
2020/12/16 04:40:44;;;;;;;;;;;;;;;;;;5062717;28;16287;-53
2020/12/16 04:43:20;;;;;;;;;;;;;;;;;;5067610;28;16722;-49
2020/12/16 04:45:45;;;;;;;;;;;;;;;;;;5068236;28;15785;-44
2020/12/16 04:48:11;;;;;;;;;;;;;;;;;;5070423;28;15027;-51
2020/12/16 04:50:38;;;;;;;;;;;;;;;;;;5067844;28;4138;-53
2020/12/16 04:53:04;;;;;;;;;;;;;;;;;;5064221;28;9505;-45
2020/12/16 04:55:30;;;;;;;;;;;;;;;;;;5068115;28;9813;-46
2020/12/16 04:57:55;;;;;;;;;;;;;;;;;;5062951;28;13884;-51
2020/12/16 05:00:21;;;;;;;;;;;;;;;;;;5065965;28;13527;-48
2020/12/16 05:02:49;;;;;;;;;;;;;;;;;;5059798;28;12856;-51
2020/12/16 05:05:14;;;;;;;;;;;;;;;;;;5070063;28;9813;-50
2020/12/16 05:07:39;;;;;;;;;;;;;;;;;;5065287;28;8297;-50
2020/12/16 05:10:04;;;;;;;;;;;;;;;;;;5062175;28;7723;-46
2020/12/16 05:12:30;;;;;;;;;;;;;;;;;;5068248;28;13183;-48
2020/12/16 05:14:55;;;;;;;;;;;;;;;;;;5070192;28;8224;-49
2020/12/16 05:17:20;;;;;;;;;;;;;;;;;;5070420;28;4066;-52
2020/12/16 05:19:45;;;;;;;;;;;;;;;;;;5068510;28;7319;-49
2020/12/16 05:22:11;;;;;;;;;;;;;;;;;;5069271;28;14433;-52
2020/12/16 05:24:36;;;;;;;;;;;;;;;;;;5065609;28;14485;-55
2020/12/16 05:27:02;;;;;;;;;;;;;;;;;;5066042;28;16148;-50
2020/12/16 05:29:27;;;;;;;;;;;;;;;;;;5072182;28;4280;-46
2020/12/16 05:31:52;;;;;;;;;;;;;;;;;;5067291;28;16396;-47
2020/12/16 05:34:18;;;;;;;;;;;;;;;;;;5069811;28;10598;-51
2020/12/16 05:36:43;;;;;;;;;;;;;;;;;;5064853;28;13942;-49
2020/12/16 05:39:10;;;;;;;;;;;;;;;;;;5067878;28;13649;-47
2020/12/16 05:41:35;;;;;;;;;;;;;;;;;;5066484;28;4086;-52
2020/12/16 05:44:20;;;;;;;;;;;;;;;;;;5069847;28;6872;-46
2020/12/16 05:46:49;;;;;;;;;;;;;;;;;;5062690;28;12994;-49
2020/12/16 05:49:21;;;;;;;;;;;;;;;;;;5069349;28;6790;-55
2020/12/16 05:51:54;;;;;;;;;;;;;;;;;;5068993;28;14935;-50
2020/12/16 05:54:19;;;;;;;;;;;;;;;;;;5067774;28;10873;-54
2020/12/16 05:56:44;;;;;;;;;;;;;;;;;;5067615;28;14154;-47
2020/12/16 05:59:09;;;;;;;;;;;;;;;;;;5064490;28;8115;-46
2020/12/16 06:01:35;;;;;;;;;;;;;;;;;;5072244;28;11782;-48
2020/12/16 06:04:02;;;;;;;;;;;;;;;;;;5061351;28;8404;-55
2020/12/16 06:06:28;;;;;;;;;;;;;;;;;;5064516;28;15302;-46
2020/12/16 06:08:53;;;;;;;;;;;;;;;;;;5058474;28;14543;-48
2020/12/16 06:11:18;;;;;;;;;;;;;;;;;;5069660;28;6929;-50
2020/12/16 06:13:47;;;;;;;;;;;;;;;;;;5073552;28;14595;-49
2020/12/16 06:16:12;;;;;;;;;;;;;;;;;;5070601;28;8202;-51
2020/12/16 06:18:43;;;;;;;;;;;;;;;;;;5063826;28;9351;-50
2020/12/16 06:21:11;;;;;;;;;;;;;;;;;;5063544;28;9378;-49
2020/12/16 06:23:41;;;;;;;;;;;;;;;;;;5071144;28;4225;-50
2020/12/16 06:26:11;;;;;;;;;;;;;;;;;;5071815;28;11287;-52
2020/12/16 06:28:36;;;;;;;;;;;;;;;;;;5068259;28;14404;-47
2020/12/16 06:31:07;;;;;;;;;;;;;;;;;;5065945;28;7006;-47
2020/12/16 06:33:39;;;;;;;;;;;;;;;;;;5069438;28;7427;-47
2020/12/16 06:36:06;;;;;;;;;;;;;;;;;;5065472;28;15075;-50
2020/12/16 06:38:38;;;;;;;;;;;;;;;;;;5071007;28;4245;-48
2020/12/16 06:41:03;;;;;;;;;;;;;;;;;;5066972;28;13694;-52
2020/12/16 06:43:31;;;;;;;;;;;;;;;;;;5067915;28;11257;-46
2020/12/16 06:46:00;;;;;;;;;;;;;;;;;;5070154;28;10926;-49
2020/12/16 06:48:33;;;;;;;;;;;;;;;;;;5057436;28;13761;-49
2020/12/16 06:51:13;;;;;;;;;;;;;;;;;;5060118;28;13054;-48
2020/12/16 06:53:38;;;;;;;;;;;;;;;;;;5070277;28;4193;-52
2020/12/16 06:56:04;;;;;;;;;;;;;;;;;;5066671;28;13165;-53
2020/12/16 06:58:38;;;;;;;;;;;;;;;;;;5061041;28;14511;-52
2020/12/16 07:01:11;;;;;;;;;;;;;;;;;;5069432;28;9388;-50
2020/12/16 07:03:36;;;;;;;;;;;;;;;;;;5066903;28;13530;-50
2020/12/16 07:06:01;;;;;;;;;;;;;;;;;;5058269;28;8424;-46
2020/12/16 07:08:28;;;;;;;;;;;;;;;;;;5063270;28;4233;-48
2020/12/16 07:10:53;;;;;;;;;;;;;;;;;;5066307;28;16223;-54
2020/12/16 07:13:19;;;;;;;;;;;;;;;;;;5069920;28;14696;-53
2020/12/16 07:15:46;;;;;;;;;;;;;;;;;;5080095;28;8054;-48
2020/12/16 07:18:30;;;;;;;;;;;;;;;;;;5068331;28;15434;-50
2020/12/16 07:20:59;;;;;;;;;;;;;;;;;;5065223;28;14872;-48
2020/12/16 07:23:36;;;;;;;;;;;;;;;;;;5079497;28;4054;-49
2020/12/16 07:26:02;;;;;;;;;;;;;;;;;;5066562;28;15745;-51
2020/12/16 07:28:31;;;;;;;;;;;;;;;;;;5064559;28;14955;-45
2020/12/16 07:30:56;;;;;;;;;;;;;;;;;;5067713;28;15482;-49
2020/12/16 07:33:21;;;;;;;;;;;;;;;;;;5066625;28;8822;-50
2020/12/16 07:35:47;;;;;;;;;;;;;;;;;;5068960;28;14584;-51
2020/12/16 07:38:13;;;;;;;;;;;;;;;;;;5068942;28;9659;-46
2020/12/16 07:40:39;;;;;;;;;;;;;;;;;;5071084;28;11648;-44
2020/12/16 07:43:05;;;;;;;;;;;;;;;;;;5068238;28;14450;-48
2020/12/16 07:45:30;;;;;;;;;;;;;;;;;;5080122;28;10778;-51
2020/12/16 07:47:55;;;;;;;;;;;;;;;;;;5068983;28;16876;-55
2020/12/16 07:50:21;;;;;;;;;;;;;;;;;;5070782;28;7000;-49
2020/12/16 07:52:52;;;;;;;;;;;;;;;;;;5067289;28;10978;-49
2020/12/16 07:55:24;;;;;;;;;;;;;;;;;;5061506;28;14842;-49
2020/12/16 07:57:49;;;;;;;;;;;;;;;;;;5066488;28;13087;-49
2020/12/16 08:00:20;;;;;;;;;;;;;;;;;;5066420;28;10835;-47
2020/12/16 08:02:49;;;;;;;;;;;;;;;;;;5054749;28;7370;-49
2020/12/16 08:05:15;;;;;;;;;;;;;;;;;;5064500;28;10965;-53
2020/12/16 08:07:40;;;;;;;;;;;;;;;;;;5062120;28;14155;-51
2020/12/16 08:10:06;;;;;;;;;;;;;;;;;;5065895;28;16676;-49
2020/12/16 08:12:33;;;;;;;;;;;;;;;;;;5064404;28;14017;-51
2020/12/16 08:15:04;;;;;;;;;;;;;;;;;;5066396;28;15427;-50
2020/12/16 08:17:30;;;;;;;;;;;;;;;;;;5068223;28;3833;-53
2020/12/16 08:20:14;;;;;;;;;;;;;;;;;;5065437;28;10772;-51
2020/12/16 08:22:41;;;;;;;;;;;;;;;;;;5066493;28;15362;-49
2020/12/16 08:25:10;;;;;;;;;;;;;;;;;;5064871;28;12425;-51
2020/12/16 08:27:36;;;;;;;;;;;;;;;;;;5066507;28;13717;-51
2020/12/16 08:30:03;;;;;;;;;;;;;;;;;;5062942;28;9252;-48
2020/12/16 08:32:29;;;;;;;;;;;;;;;;;;5066450;28;4028;-53
2020/12/16 08:34:56;;;;;;;;;;;;;;;;;;5067231;28;9632;-53
2020/12/16 08:37:22;;;;;;;;;;;;;;;;;;5066363;28;9549;-48
2020/12/16 08:39:48;;;;;;;;;;;;;;;;;;5066757;28;16607;-50
2020/12/16 08:42:21;;;;;;;;;;;;;;;;;;5065469;28;9935;-49
2020/12/16 08:44:47;;;;;;;;;;;;;;;;;;5052064;28;14435;-53
2020/12/16 08:47:22;;;;;;;;;;;;;;;;;;5064252;28;9704;-52
2020/12/16 08:49:51;;;;;;;;;;;;;;;;;;5064163;28;14321;-51
2020/12/16 08:52:16;;;;;;;;;;;;;;;;;;5072699;28;13594;-53
2020/12/16 08:54:42;;;;;;;;;;;;;;;;;;5059548;28;9905;-51
2020/12/16 08:57:07;;;;;;;;;;;;;;;;;;5066621;28;16585;-56
2020/12/16 08:59:33;;;;;;;;;;;;;;;;;;5071526;28;3979;-49
2020/12/16 09:02:01;;;;;;;;;;;;;;;;;;5068885;28;16348;-51
2020/12/16 09:04:32;;;;;;;;;;;;;;;;;;5066829;28;9712;-50
2020/12/16 09:07:06;;;;;;;;;;;;;;;;;;5070155;28;11481;-55
2020/12/16 09:09:36;;;;;;;;;;;;;;;;;;5064106;28;16053;-50
2020/12/16 09:12:02;;;;;;;;;;;;;;;;;;5070139;28;11901;-52
2020/12/16 09:14:27;;;;;;;;;;;;;;;;;;5067134;28;4047;-49
2020/12/16 09:16:53;;;;;;;;;;;;;;;;;;5069777;28;9103;-50
2020/12/16 09:19:22;;;;;;;;;;;;;;;;;;5068445;28;13454;-53
2020/12/16 09:21:48;;;;;;;;;;;;;;;;;;5066119;28;14151;-44
2020/12/16 09:24:17;;;;;;;;;;;;;;;;;;5072488;28;16211;-50
2020/12/16 09:26:43;;;;;;;;;;;;;;;;;;5063092;28;4197;-50
2020/12/16 09:29:15;;;;;;;;;;;;;;;;;;5063896;28;9708;-49
2020/12/16 09:31:41;;;;;;;;;;;;;;;;;;5061305;28;13809;-52
2020/12/16 09:34:06;;;;;;;;;;;;;;;;;;5060309;28;15923;-47
2020/12/16 09:36:32;;;;;;;;;;;;;;;;;;5065592;28;14536;-48
2020/12/16 09:38:58;;;;;;;;;;;;;;;;;;5068829;28;15561;-53
2020/12/16 09:41:23;;;;;;;;;;;;;;;;;;5053583;28;11977;-47
2020/12/16 09:43:48;;;;;;;;;;;;;;;;;;5032777;28;7581;-52
2020/12/16 09:46:18;;;;;;;;;;;;;;;;;;5023606;28;12882;-53
2020/12/16 09:48:47;;;;;;;;;;;;;;;;;;5024711;28;11727;-57
2020/12/16 09:51:13;;;;;;;;;;;;;;;;;;5023971;28;13089;-51
2020/12/16 09:53:39;;;;;;;;;;;;;;;;;;5028340;28;4331;-50
2020/12/16 09:56:04;;;;;;;;;;;;;;;;;;5026632;28;13605;-51
2020/12/16 09:58:35;;;;;;;;;;;;;;;;;;5026159;28;11052;-49
2020/12/16 10:01:01;;;;;;;;;;;;;;;;;;5023675;28;10854;-55
2020/12/16 10:03:26;;;;;;;;;;;;;;;;;;5023893;28;14659;-51
2020/12/16 10:05:51;;;;;;;;;;;;;;;;;;5028734;28;13851;-49
2020/12/16 10:08:18;;;;;;;;;;;;;;;;;;5029900;28;7718;-51
2020/12/16 10:10:44;;;;;;;;;;;;;;;;;;5028294;28;9671;-49
2020/12/16 10:13:10;;;;;;;;;;;;;;;;;;5027948;28;14243;-48
2020/12/16 10:15:35;;;;;;;;;;;;;;;;;;5027501;28;13151;-49
2020/12/16 10:18:00;;;;;;;;;;;;;;;;;;5028320;28;10940;-47
2020/12/16 10:20:26;;;;;;;;;;;;;;;;;;5029324;28;7498;-48
2020/12/16 10:22:51;;;;;;;;;;;;;;;;;;5028951;28;8594;-49
2020/12/16 10:25:16;;;;;;;;;;;;;;;;;;5043094;28;15406;-49
2020/12/16 10:27:42;;;;;;;;;;;;;;;;;;5027838;28;13101;-44
2020/12/16 10:30:07;;;;;;;;;;;;;;;;;;5027940;28;7307;-48
2020/12/16 10:32:34;;;;;;;;;;;;;;;;;;5031082;28;4249;-49
2020/12/16 10:34:59;;;;;;;;;;;;;;;;;;5030352;28;14916;-54
2020/12/16 10:37:25;;;;;;;;;;;;;;;;;;5022375;28;7714;-50
2020/12/16 10:39:50;;;;;;;;;;;;;;;;;;5024778;28;16035;-50
2020/12/16 10:42:16;;;;;;;;;;;;;;;;;;5021418;28;13253;-53
2020/12/16 10:44:41;;;;;;;;;;;;;;;;;;5021199;28;3926;-52
2020/12/16 10:47:07;;;;;;;;;;;;;;;;;;5019679;28;12252;-47
2020/12/16 10:49:32;;;;;;;;;;;;;;;;;;5025176;28;11581;-52
2020/12/16 10:52:02;;;;;;;;;;;;;;;;;;5022703;28;13574;-49
2020/12/16 10:54:27;;;;;;;;;;;;;;;;;;5025019;28;9284;-48
2020/12/16 10:56:56;;;;;;;;;;;;;;;;;;5024745;28;13987;-50
2020/12/16 10:59:22;;;;;;;;;;;;;;;;;;5026488;28;7127;-48
2020/12/16 11:01:47;;;;;;;;;;;;;;;;;;5025198;28;10730;-49
2020/12/16 11:04:12;;;;;;;;;;;;;;;;;;5023266;28;14434;-48
2020/12/16 11:06:44;;;;;;;;;;;;;;;;;;5024287;28;12682;-49
2020/12/16 11:09:10;;;;;;;;;;;;;;;;;;5023799;28;13800;-49
2020/12/16 11:11:44;;;;;;;;;;;;;;;;;;5027028;28;4117;-48
2020/12/16 11:14:10;;;;;;;;;;;;;;;;;;5023288;28;14738;-44
2020/12/16 11:16:35;;;;;;;;;;;;;;;;;;5025834;28;10744;-51
2020/12/16 11:19:01;;;;;;;;;;;;;;;;;;5024208;28;16324;-48
2020/12/16 11:21:27;;;;;;;;;;;;;;;;;;5025452;28;9327;-49
2020/12/16 11:23:53;;;;;;;;;;;;;;;;;;5026426;28;13452;-50
2020/12/16 11:26:18;;;;;;;;;;;;;;;;;;5024631;28;6974;-50
2020/12/16 11:28:43;;;;;;;;;;;;;;;;;;5024249;28;14667;-53
2020/12/16 11:31:08;;;;;;;;;;;;;;;;;;5025695;28;13737;-48
2020/12/16 11:33:34;;;;;;;;;;;;;;;;;;5015948;28;14773;-49
2020/12/16 11:36:14;;;;;;;;;;;;;;;;;;5003161;28;14522;-49
2020/12/16 11:38:39;;;;;;;;;;;;;;;;;;5004150;28;4226;-45
2020/12/16 11:41:05;;;;;;;;;;;;;;;;;;4996456;28;12498;-51
2020/12/16 11:43:30;;;;;;;;;;;;;;;;;;5002273;28;9400;-52
2020/12/16 11:45:56;;;;;;;;;;;;;;;;;;5001676;28;12179;-50
2020/12/16 11:48:22;;;;;;;;;;;;;;;;;;4979984;28;13796;-52
2020/12/16 11:50:47;;;;;;;;;;;;;;;;;;5002722;28;3896;-47
2020/12/16 11:53:13;;;;;;;;;;;;;;;;;;5002411;28;10898;-55
2020/12/16 11:55:38;;;;;;;;;;;;;;;;;;4999569;28;15129;-47
2020/12/16 11:58:03;;;;;;;;;;;;;;;;;;5003335;28;10887;-51
2020/12/16 12:00:28;;;;;;;;;;;;;;;;;;5002919;28;13821;-51
2020/12/16 12:02:54;;;;;;;;;;;;;;;;;;5004821;28;10867;-47
2020/12/16 12:05:19;;;;;;;;;;;;;;;;;;5003961;28;9493;-47
2020/12/16 12:07:44;;;;;;;;;;;;;;;;;;5001616;28;17042;-48
2020/12/16 12:10:09;;;;;;;;;;;;;;;;;;5000662;28;12814;-50
2020/12/16 12:12:35;;;;;;;;;;;;;;;;;;5005137;28;12863;-50
2020/12/16 12:15:00;;;;;;;;;;;;;;;;;;5028530;28;15490;-54
2020/12/16 12:17:25;;;;;;;;;;;;;;;;;;5021064;28;7537;-51
2020/12/16 12:19:50;;;;;;;;;;;;;;;;;;5030202;28;10898;-49
2020/12/16 12:22:16;;;;;;;;;;;;;;;;;;5026501;28;15421;-49
2020/12/16 12:24:41;;;;;;;;;;;;;;;;;;5015192;28;16617;-51
2020/12/16 12:27:06;;;;;;;;;;;;;;;;;;5029435;28;9613;-48
2020/12/16 12:29:31;;;;;;;;;;;;;;;;;;5026841;28;4176;-51
2020/12/16 12:31:57;;;;;;;;;;;;;;;;;;5027430;28;16303;-45
2020/12/16 12:34:22;;;;;;;;;;;;;;;;;;5028462;28;10740;-49
2020/12/16 12:36:47;;;;;;;;;;;;;;;;;;5024542;28;15640;-51
2020/12/16 12:39:13;;;;;;;;;;;;;;;;;;5021327;28;9416;-49
2020/12/16 12:41:38;;;;;;;;;;;;;;;;;;5029886;28;3961;-51
2020/12/16 12:44:03;;;;;;;;;;;;;;;;;;5043341;28;15015;-48
2020/12/16 12:46:28;;;;;;;;;;;;;;;;;;5026949;28;11237;-52
2020/12/16 12:48:54;;;;;;;;;;;;;;;;;;5025595;28;10857;-51
2020/12/16 12:51:20;;;;;;;;;;;;;;;;;;5031787;28;10714;-57
2020/12/16 12:53:45;;;;;;;;;;;;;;;;;;5031444;28;4179;-50
2020/12/16 12:56:10;;;;;;;;;;;;;;;;;;5028009;28;9426;-46
2020/12/16 12:58:36;;;;;;;;;;;;;;;;;;5023760;28;9444;-49
2020/12/16 13:01:01;;;;;;;;;;;;;;;;;;5023479;28;14175;-52
2020/12/16 13:03:26;;;;;;;;;;;;;;;;;;5029423;28;15226;-49
2020/12/16 13:05:51;;;;;;;;;;;;;;;;;;5031444;28;3921;-44
2020/12/16 13:08:17;;;;;;;;;;;;;;;;;;5025570;28;11461;-45
2020/12/16 13:10:42;;;;;;;;;;;;;;;;;;5025258;28;15340;-48
2020/12/16 13:13:07;;;;;;;;;;;;;;;;;;5032591;28;11344;-51
2020/12/16 13:15:33;;;;;;;;;;;;;;;;;;5027095;28;12222;-52
2020/12/16 13:17:58;;;;;;;;;;;;;;;;;;5027438;28;9346;-49
2020/12/16 13:20:23;;;;;;;;;;;;;;;;;;5029140;28;9494;-53
2020/12/16 13:22:48;;;;;;;;;;;;;;;;;;5024966;28;15569;-49
2020/12/16 13:25:14;;;;;;;;;;;;;;;;;;5025180;28;10842;-51
2020/12/16 13:27:39;;;;;;;;;;;;;;;;;;5027119;28;16188;-50
2020/12/16 13:30:05;;;;;;;;;;;;;;;;;;5025384;28;9328;-48
2020/12/16 13:32:31;;;;;;;;;;;;;;;;;;5027887;28;10849;-52
2020/12/16 13:34:56;;;;;;;;;;;;;;;;;;5026405;28;9456;-45
2020/12/16 13:37:21;;;;;;;;;;;;;;;;;;5023992;28;9379;-49
2020/12/16 13:39:47;;;;;;;;;;;;;;;;;;5027190;28;6673;-48
2020/12/16 13:42:12;;;;;;;;;;;;;;;;;;5026055;28;14706;-48
2020/12/16 13:44:41;;;;;;;;;;;;;;;;;;5029470;28;4809;-53
2020/12/16 13:47:06;;;;;;;;;;;;;;;;;;5025611;28;14362;-50
2020/12/16 13:49:32;;;;;;;;;;;;;;;;;;5023872;28;11213;-47
2020/12/16 13:51:57;;;;;;;;;;;;;;;;;;5024438;28;13788;-52
2020/12/16 13:54:23;;;;;;;;;;;;;;;;;;5026673;28;10737;-49
2020/12/16 13:56:48;;;;;;;;;;;;;;;;;;5027614;28;4175;-50
2020/12/16 13:59:13;;;;;;;;;;;;;;;;;;5024652;28;10824;-45
2020/12/16 14:01:39;;;;;;;;;;;;;;;;;;5025799;28;10116;-50
2020/12/16 14:04:05;;;;;;;;;;;;;;;;;;5026048;28;14337;-49
2020/12/16 14:06:30;;;;;;;;;;;;;;;;;;5024620;28;12827;-52
2020/12/16 14:08:55;;;;;;;;;;;;;;;;;;5025757;28;14419;-47
2020/12/16 14:11:21;;;;;;;;;;;;;;;;;;5025237;28;7936;-48
2020/12/16 14:13:50;;;;;;;;;;;;;;;;;;5023523;28;11668;-46
2020/12/16 14:16:17;;;;;;;;;;;;;;;;;;5017983;28;11655;-46
2020/12/16 14:18:42;;;;;;;;;;;;;;;;;;5025898;28;11526;-52
2020/12/16 14:21:08;;;;;;;;;;;;;;;;;;5031433;28;14869;-52
2020/12/16 14:23:34;;;;;;;;;;;;;;;;;;5027293;28;4033;-48
2020/12/16 14:25:59;;;;;;;;;;;;;;;;;;5028139;28;14042;-50
2020/12/16 14:28:25;;;;;;;;;;;;;;;;;;5029247;28;9528;-51
2020/12/16 14:30:50;;;;;;;;;;;;;;;;;;5021616;28;15545;-53
2020/12/16 14:33:15;;;;;;;;;;;;;;;;;;5027951;28;9508;-48
2020/12/16 14:35:41;;;;;;;;;;;;;;;;;;5033732;28;4222;-52
2020/12/16 14:38:06;;;;;;;;;;;;;;;;;;5024432;28;11754;-48
2020/12/16 14:40:31;;;;;;;;;;;;;;;;;;5026988;28;15300;-44
2020/12/16 14:42:56;;;;;;;;;;;;;;;;;;5025385;28;15359;-48
2020/12/16 14:45:22;;;;;;;;;;;;;;;;;;5027755;28;15221;-47
2020/12/16 14:47:49;;;;;;;;;;;;;;;;;;5031135;28;4369;-45
2020/12/16 14:50:15;;;;;;;;;;;;;;;;;;5022469;28;14504;-51
2020/12/16 14:52:41;;;;;;;;;;;;;;;;;;5023073;28;15956;-51
2020/12/16 14:55:06;;;;;;;;;;;;;;;;;;5026593;28;9944;-51
2020/12/16 14:57:31;;;;;;;;;;;;;;;;;;5027151;28;14587;-50
2020/12/16 14:59:57;;;;;;;;;;;;;;;;;;5027947;28;9292;-47
2020/12/16 15:02:22;;;;;;;;;;;;;;;;;;5027834;28;9739;-50
2020/12/16 15:04:47;;;;;;;;;;;;;;;;;;5025764;28;15043;-50
2020/12/16 15:07:13;;;;;;;;;;;;;;;;;;5027325;28;9596;-50
2020/12/16 15:09:38;;;;;;;;;;;;;;;;;;5026452;28;14033;-51
2020/12/16 15:12:03;;;;;;;;;;;;;;;;;;5027520;28;14266;-52
2020/12/16 15:14:28;;;;;;;;;;;;;;;;;;5027173;28;9245;-50
2020/12/16 15:16:54;;;;;;;;;;;;;;;;;;5017544;28;13341;-45
2020/12/16 15:19:19;;;;;;;;;;;;;;;;;;5023160;28;7202;-49
2020/12/16 15:21:44;;;;;;;;;;;;;;;;;;5021186;28;9487;-49
2020/12/16 15:24:10;;;;;;;;;;;;;;;;;;5024189;28;14317;-50
2020/12/16 15:26:35;;;;;;;;;;;;;;;;;;5027419;28;4186;-44
2020/12/16 15:29:00;;;;;;;;;;;;;;;;;;5023105;28;16921;-51
2020/12/16 15:31:25;;;;;;;;;;;;;;;;;;5031939;28;13978;-52
2020/12/16 15:33:51;;;;;;;;;;;;;;;;;;5037386;28;10901;-48
2020/12/16 15:36:16;;;;;;;;;;;;;;;;;;5051114;28;11640;-53
2020/12/16 15:38:42;;;;;;;;;;;;;;;;;;5051071;28;4238;-47
2020/12/16 15:41:07;;;;;;;;;;;;;;;;;;5039382;28;7883;-51
2020/12/16 15:43:33;;;;;;;;;;;;;;;;;;5047884;28;13446;-49
2020/12/16 15:45:58;;;;;;;;;;;;;;;;;;5041840;28;10559;-47
2020/12/16 15:48:24;;;;;;;;;;;;;;;;;;5044623;28;14401;-53
2020/12/16 15:50:52;;;;;;;;;;;;;;;;;;5047126;28;4180;-51
2020/12/16 15:53:18;;;;;;;;;;;;;;;;;;5045969;28;9419;-45
2020/12/16 15:55:43;;;;;;;;;;;;;;;;;;5045426;28;9792;-51
2020/12/16 15:58:09;;;;;;;;;;;;;;;;;;5046515;28;9566;-53
2020/12/16 16:00:34;;;;;;;;;;;;;;;;;;5047650;28;13608;-51
2020/12/16 16:02:59;;;;;;;;;;;;;;;;;;5044197;28;5581;-54
2020/12/16 16:05:25;;;;;;;;;;;;;;;;;;5050248;28;9094;-53
2020/12/16 16:07:50;;;;;;;;;;;;;;;;;;5047269;28;14038;-47
2020/12/16 16:10:16;;;;;;;;;;;;;;;;;;5067404;28;9436;-51
2020/12/16 16:12:41;;;;;;;;;;;;;;;;;;5050739;28;9293;-49
2020/12/16 16:15:07;;;;;;;;;;;;;;;;;;5050858;28;11290;-46
2020/12/16 16:17:33;;;;;;;;;;;;;;;;;;5052037;28;9729;-54
2020/12/16 16:19:58;;;;;;;;;;;;;;;;;;5049719;28;14395;-46
2020/12/16 16:22:23;;;;;;;;;;;;;;;;;;5050160;28;8155;-45
2020/12/16 16:24:49;;;;;;;;;;;;;;;;;;5050877;28;8090;-45
2020/12/16 16:27:14;;;;;;;;;;;;;;;;;;5048907;28;15225;-47
2020/12/16 16:29:41;;;;;;;;;;;;;;;;;;5052838;28;4188;-50
2020/12/16 16:32:06;;;;;;;;;;;;;;;;;;5052645;28;14838;-46
2020/12/16 16:34:31;;;;;;;;;;;;;;;;;;5055973;28;14552;-50
2020/12/16 16:36:57;;;;;;;;;;;;;;;;;;5050871;28;13306;-52
2020/12/16 16:39:22;;;;;;;;;;;;;;;;;;5049096;28;15344;-45
2020/12/16 16:41:49;;;;;;;;;;;;;;;;;;5047377;28;4112;-50
2020/12/16 16:44:15;;;;;;;;;;;;;;;;;;5046180;28;15047;-48
2020/12/16 16:46:40;;;;;;;;;;;;;;;;;;5048531;28;15366;-47